createdAt,value
2022-11-28T00:01:45.484Z,25.83
2022-11-28T00:04:13.516Z,23.17
2022-11-28T00:06:47.155Z,24.88
2022-11-28T00:09:15.281Z,27.00
2022-11-28T00:11:44.179Z,25.00
2022-11-28T00:14:10.983Z,23.90
2022-11-28T00:16:38.162Z,25.27
2022-11-28T00:19:06.603Z,24.88
2022-11-28T00:21:34.504Z,23.25
2022-11-28T00:24:01.972Z,25.63
2022-11-28T00:26:31.952Z,25.88
2022-11-28T00:28:59.700Z,29.88
2022-11-28T00:31:35.875Z,22.35
2022-11-28T00:34:03.284Z,23.20
2022-11-28T00:36:31.170Z,23.02
2022-11-28T00:38:57.835Z,20.48
2022-11-28T00:41:28.453Z,19.98
2022-11-28T00:43:55.712Z,18.45
2022-11-28T00:46:24.012Z,19.95
2022-11-28T00:48:51.423Z,15.98
2022-11-28T00:51:21.340Z,19.80
2022-11-28T00:53:49.895Z,19.25
2022-11-28T00:56:20.491Z,18.98
2022-11-28T00:58:50.281Z,16.23
2022-11-28T01:01:20.490Z,16.40
2022-11-28T01:03:48.654Z,17.38
2022-11-28T01:06:39.484Z,16.48
2022-11-28T01:09:09.225Z,19.42
2022-11-28T01:11:38.984Z,17.83
2022-11-28T01:14:06.410Z,19.05
2022-11-28T01:16:33.344Z,18.77
2022-11-28T01:19:00.130Z,21.08
2022-11-28T01:21:27.640Z,20.85
2022-11-28T01:23:54.351Z,18.67
2022-11-28T01:26:26.905Z,21.10
2022-11-28T01:28:54.266Z,17.88
2022-11-28T01:31:23.942Z,18.70
2022-11-28T01:33:51.555Z,19.95
2022-11-28T01:36:19.408Z,21.98
2022-11-28T01:38:46.879Z,21.48
2022-11-28T01:41:14.603Z,20.17
2022-11-28T01:44:02.275Z,22.20
2022-11-28T01:46:29.853Z,20.02
2022-11-28T01:49:09.055Z,20.63
2022-11-28T01:51:36.753Z,19.52
2022-11-28T01:54:03.900Z,20.05
2022-11-28T01:56:47.560Z,20.17
2022-11-28T01:59:15.840Z,19.45
2022-11-28T02:01:44.167Z,20.58
2022-11-28T02:04:13.528Z,21.10
2022-11-28T02:06:42.148Z,21.80
2022-11-28T02:09:14.195Z,20.77
2022-11-28T02:12:15.272Z,20.80
2022-11-28T02:15:02.561Z,19.00
2022-11-28T02:18:06.531Z,21.20
2022-11-28T02:20:59.359Z,20.95
2022-11-28T02:24:05.727Z,19.10
2022-11-28T02:26:44.073Z,16.80
2022-11-28T02:29:21.639Z,16.02
2022-11-28T02:32:09.993Z,16.52
2022-11-28T02:34:58.446Z,17.50
2022-11-28T02:37:32.296Z,19.58
2022-11-28T02:40:28.314Z,16.25
2022-11-28T02:43:03.680Z,16.42
2022-11-28T02:45:46.363Z,16.33
2022-11-28T02:48:52.106Z,17.05
2022-11-28T02:51:42.405Z,18.52
2022-11-28T02:54:12.003Z,22.27
2022-11-28T02:56:39.038Z,21.63
2022-11-28T02:59:33.045Z,24.33
2022-11-28T03:02:01.485Z,23.45
2022-11-28T03:04:53.277Z,21.88
2022-11-28T03:07:25.785Z,24.40
2022-11-28T03:10:03.339Z,25.50
2022-11-28T03:13:01.790Z,25.67
2022-11-28T03:16:02.673Z,24.58
2022-11-28T03:18:45.825Z,25.30
2022-11-28T03:21:18.417Z,25.02
2022-11-28T03:23:53.305Z,22.75
2022-11-28T03:26:53.006Z,22.98
2022-11-28T03:29:19.757Z,24.67
2022-11-28T03:31:56.969Z,26.33
2022-11-28T03:34:31.211Z,25.48
2022-11-28T03:37:02.956Z,27.17
2022-11-28T03:42:10.673Z,22.83
2022-11-28T03:44:49.654Z,24.73
2022-11-28T03:47:16.521Z,27.75
2022-11-28T03:49:50.342Z,29.38
2022-11-28T03:52:25.392Z,29.88
2022-11-28T03:54:54.679Z,32.63
2022-11-28T03:57:45.996Z,30.98
2022-11-28T04:00:13.932Z,31.77
2022-11-28T04:02:57.002Z,31.40
2022-11-28T04:06:11.512Z,33.60
2022-11-28T04:08:46.667Z,31.48
2022-11-28T04:11:18.164Z,33.95
2022-11-28T04:14:05.991Z,35.97
2022-11-28T04:16:41.922Z,35.45
2022-11-28T04:19:29.740Z,33.92
2022-11-28T04:22:07.304Z,33.75
2022-11-28T04:24:40.521Z,36.22
2022-11-28T04:27:12.113Z,38.92
2022-11-28T04:29:51.256Z,34.33
2022-11-28T04:32:20.335Z,39.45
2022-11-28T04:34:52.698Z,38.10
2022-11-28T04:37:21.615Z,35.85
2022-11-28T04:39:50.082Z,38.45
2022-11-28T04:42:37.578Z,38.65
2022-11-28T04:45:33.623Z,39.20
2022-11-28T04:48:01.259Z,37.03
2022-11-28T04:50:41.044Z,40.17
2022-11-28T04:53:15.684Z,42.78
2022-11-28T04:55:47.923Z,41.35
2022-11-28T04:58:40.423Z,45.05
2022-11-28T05:01:10.253Z,43.55
2022-11-28T05:03:42.410Z,44.08
2022-11-28T05:06:09.730Z,44.58
2022-11-28T05:08:36.457Z,45.28
2022-11-28T05:11:03.130Z,46.05
2022-11-28T05:13:29.813Z,50.67
2022-11-28T05:16:00.515Z,49.35
2022-11-28T05:18:27.228Z,54.13
2022-11-28T05:20:53.872Z,53.08
2022-11-28T05:23:20.677Z,61.95
2022-11-28T05:25:47.376Z,56.00
2022-11-28T05:28:14.025Z,60.50
2022-11-28T05:30:40.749Z,58.90
2022-11-28T05:33:07.453Z,66.95
2022-11-28T05:35:34.169Z,65.85
2022-11-28T05:38:00.843Z,60.33
2022-11-28T05:40:27.589Z,59.28
2022-11-28T05:42:54.290Z,61.83
2022-11-28T05:45:21.158Z,61.38
2022-11-28T05:47:47.898Z,59.33
2022-11-28T05:50:14.710Z,60.72
2022-11-28T05:52:41.417Z,54.42
2022-11-28T05:55:08.622Z,67.95
2022-11-28T05:57:35.277Z,62.65
2022-11-28T06:00:02.146Z,74.53
2022-11-28T06:02:28.859Z,63.17
2022-11-28T06:04:55.749Z,65.32
2022-11-28T06:07:22.486Z,65.60
2022-11-28T06:09:49.111Z,70.68
2022-11-28T06:12:15.799Z,70.68
2022-11-28T06:14:42.540Z,74.47
2022-11-28T06:17:09.258Z,71.18
2022-11-28T06:19:36.022Z,72.57
2022-11-28T06:22:02.737Z,77.80
2022-11-28T06:24:29.485Z,73.47
2022-11-28T06:26:56.389Z,78.25
2022-11-28T06:29:23.131Z,82.05
2022-11-28T06:31:49.989Z,86.30
2022-11-28T06:34:16.817Z,79.22
2022-11-28T06:36:45.114Z,82.88
2022-11-28T06:39:16.352Z,86.95
2022-11-28T06:41:44.005Z,84.35
2022-11-28T06:44:14.539Z,80.35
2022-11-28T06:46:42.299Z,80.30
2022-11-28T06:49:12.074Z,78.20
2022-11-28T06:51:40.295Z,83.70
2022-11-28T06:54:07.348Z,85.88
2022-11-28T06:56:34.242Z,92.72
2022-11-28T06:59:01.353Z,83.47
2022-11-28T07:01:30.558Z,82.25
2022-11-28T07:03:57.461Z,83.40
2022-11-28T07:06:25.949Z,81.05
2022-11-28T07:08:53.589Z,84.82
2022-11-28T07:11:23.616Z,90.78
2022-11-28T07:13:50.660Z,95.75
2022-11-28T07:16:23.536Z,88.85
2022-11-28T07:18:51.460Z,88.05
2022-11-28T07:21:18.894Z,103.78
2022-11-28T07:23:46.378Z,94.68
2022-11-28T07:26:15.911Z,106.60
2022-11-28T07:28:43.495Z,102.70
2022-11-28T07:31:19.528Z,96.03
2022-11-28T07:33:48.354Z,95.93
2022-11-28T07:36:18.095Z,97.20
2022-11-28T07:38:59.236Z,97.30
2022-11-28T07:41:27.383Z,101.70
2022-11-28T07:44:00.875Z,103.78
2022-11-28T07:46:29.837Z,101.93
2022-11-28T07:48:56.790Z,102.70
2022-11-28T07:51:27.307Z,99.85
2022-11-28T07:53:54.543Z,116.25
2022-11-28T07:56:24.808Z,101.15
2022-11-28T07:58:51.878Z,119.18
2022-11-28T08:01:24.791Z,113.15
2022-11-28T08:03:53.011Z,114.15
2022-11-28T08:06:25.111Z,128.95
2022-11-28T08:08:53.177Z,122.45
2022-11-28T08:11:21.825Z,132.43
2022-11-28T08:13:49.243Z,113.07
2022-11-28T08:16:19.450Z,111.72
2022-11-28T08:18:47.003Z,120.78
2022-11-28T08:21:16.486Z,121.75
2022-11-28T08:23:45.268Z,124.15
2022-11-28T08:26:14.779Z,111.75
2022-11-28T08:28:42.622Z,109.22
2022-11-28T08:31:17.173Z,113.82
2022-11-28T08:33:44.906Z,114.75
2022-11-28T08:36:14.760Z,105.35
2022-11-28T08:38:53.446Z,102.70
2022-11-28T08:41:29.916Z,98.05
2022-11-28T08:43:56.594Z,114.80
2022-11-28T08:46:23.687Z,98.93
2022-11-28T08:48:51.613Z,96.13
2022-11-28T08:51:21.286Z,98.45
2022-11-28T08:53:49.437Z,90.78
2022-11-28T08:56:16.360Z,94.53
2022-11-28T08:58:43.389Z,94.65
2022-11-28T09:01:19.675Z,92.13
2022-11-28T09:03:47.249Z,84.70
2022-11-28T09:06:16.044Z,86.50
2022-11-28T09:08:43.449Z,80.45
2022-11-28T09:11:11.747Z,76.53
2022-11-28T09:13:39.682Z,75.15
2022-11-28T09:16:07.302Z,75.15
2022-11-28T09:18:34.342Z,66.72
2022-11-28T09:21:02.707Z,67.15
2022-11-28T09:23:31.887Z,65.80
2022-11-28T09:25:58.789Z,66.63
2022-11-28T09:28:28.722Z,63.40
2022-11-28T09:31:05.976Z,63.75
2022-11-28T09:33:33.167Z,60.55
2022-11-28T09:36:07.851Z,55.95
2022-11-28T09:38:35.004Z,55.40
2022-11-28T09:41:02.855Z,56.20
2022-11-28T09:43:49.613Z,57.08
2022-11-28T09:46:31.839Z,56.75
2022-11-28T09:49:03.029Z,57.80
2022-11-28T09:51:54.920Z,54.38
2022-11-28T09:57:27.676Z,63.63
2022-11-28T09:59:54.423Z,57.03
2022-11-28T10:02:43.244Z,58.55
2022-11-28T10:05:33.800Z,63.67
2022-11-28T10:08:23.784Z,57.75
2022-11-28T10:11:11.370Z,60.45
2022-11-28T10:14:23.266Z,58.60
2022-11-28T10:17:15.014Z,57.55
2022-11-28T10:22:40.083Z,61.55
2022-11-28T10:25:22.726Z,54.13
2022-11-28T10:27:50.471Z,50.35
2022-11-28T10:30:28.889Z,56.50
2022-11-28T10:33:19.173Z,55.67
2022-11-28T10:35:57.086Z,56.05
2022-11-28T10:38:27.498Z,57.72
2022-11-28T10:41:25.916Z,61.38
2022-11-28T10:44:04.420Z,62.83
2022-11-28T10:46:41.674Z,64.57
2022-11-28T10:49:33.985Z,62.58
2022-11-28T10:52:24.110Z,65.43
2022-11-28T10:54:58.973Z,65.68
2022-11-28T10:57:39.665Z,62.17
2022-11-28T11:00:12.435Z,61.08
2022-11-28T11:02:54.968Z,59.00
2022-11-28T11:05:27.062Z,62.58
2022-11-28T11:07:57.488Z,60.08
2022-11-28T11:10:47.460Z,62.15
2022-11-28T11:13:23.732Z,56.58
2022-11-28T11:15:58.562Z,57.83
2022-11-28T11:18:26.615Z,60.38
2022-11-28T11:21:09.210Z,57.28
2022-11-28T11:23:38.416Z,53.40
2022-11-28T11:26:06.171Z,54.03
2022-11-28T11:28:48.255Z,54.33
2022-11-28T11:31:17.339Z,43.85
2022-11-28T11:33:44.390Z,51.35
2022-11-28T11:36:35.246Z,42.53
2022-11-28T11:39:23.834Z,44.38
2022-11-28T11:42:10.543Z,51.63
2022-11-28T11:44:40.882Z,46.40
2022-11-28T11:47:10.094Z,46.72
2022-11-28T11:49:43.495Z,38.75
2022-11-28T11:52:13.579Z,46.50
2022-11-28T11:54:47.123Z,44.78
2022-11-28T11:57:32.652Z,44.42
2022-11-28T12:00:16.112Z,41.22
2022-11-28T12:02:51.739Z,41.25
2022-11-28T12:05:52.325Z,42.35
2022-11-28T12:08:44.381Z,39.13
2022-11-28T12:11:29.510Z,40.15
2022-11-28T12:14:02.437Z,36.20
2022-11-28T12:19:58.209Z,40.97
2022-11-28T12:23:02.776Z,39.60
2022-11-28T12:25:50.563Z,39.78
2022-11-28T12:28:42.783Z,38.50
2022-11-28T12:31:37.827Z,40.15
2022-11-28T12:34:28.032Z,38.40
2022-11-28T12:36:54.676Z,42.08
2022-11-28T12:39:56.871Z,42.20
2022-11-28T12:42:59.393Z,42.15
2022-11-28T12:45:26.109Z,34.28
2022-11-28T12:48:23.353Z,45.72
2022-11-28T12:50:59.319Z,44.00
2022-11-28T12:53:47.010Z,35.17
2022-11-28T12:56:55.688Z,46.95
2022-11-28T13:05:24.488Z,40.20
2022-11-28T13:08:17.539Z,42.85
2022-11-28T13:19:31.776Z,41.72
2022-11-28T13:22:11.192Z,45.30
2022-11-28T13:24:55.632Z,40.05
2022-11-28T13:27:40.823Z,43.30
2022-11-28T13:30:20.348Z,45.80
2022-11-28T13:32:56.767Z,42.85
2022-11-28T13:35:24.210Z,34.15
2022-11-28T13:40:56.469Z,41.20
2022-11-28T13:43:30.488Z,41.28
2022-11-28T13:45:57.402Z,44.88
2022-11-28T13:51:32.945Z,40.90
2022-11-28T13:54:19.134Z,37.75
2022-11-28T13:56:48.284Z,41.47
2022-11-28T13:59:25.364Z,44.17
2022-11-28T14:02:01.758Z,38.42
2022-11-28T14:04:30.427Z,40.60
2022-11-28T14:07:07.750Z,47.00
2022-11-28T14:09:42.716Z,40.03
2022-11-28T14:12:23.672Z,44.10
2022-11-28T14:15:01.814Z,39.67
2022-11-28T14:18:24.711Z,32.67
2022-11-28T14:21:16.616Z,35.47
2022-11-28T14:23:47.894Z,46.83
2022-11-28T14:26:37.662Z,40.55
2022-11-28T14:29:16.753Z,42.05
2022-11-28T14:32:06.623Z,44.45
2022-11-28T14:34:55.549Z,42.33
2022-11-28T14:37:27.407Z,37.20
2022-11-28T14:39:58.075Z,44.53
2022-11-28T14:42:58.118Z,134.48
2022-11-28T14:45:47.149Z,56.53
2022-11-28T14:48:17.007Z,42.65
2022-11-28T14:50:49.281Z,39.28
2022-11-28T14:53:36.920Z,57.30
2022-11-28T14:56:22.541Z,49.22
2022-11-28T14:58:50.953Z,46.17
2022-11-28T15:01:47.215Z,48.33
2022-11-28T15:04:39.992Z,43.53
2022-11-28T15:07:36.685Z,36.60
2022-11-28T15:10:19.334Z,40.72
2022-11-28T15:13:22.400Z,36.90
2022-11-28T15:15:50.203Z,51.33
2022-11-28T15:18:19.245Z,42.35
2022-11-28T15:20:53.865Z,33.72
2022-11-28T15:23:30.838Z,45.72
2022-11-28T15:25:59.503Z,38.47
2022-11-28T15:28:28.904Z,40.40
2022-11-28T15:30:57.893Z,36.25
2022-11-28T15:33:28.759Z,41.40
2022-11-28T15:36:01.353Z,43.70
2022-11-28T15:38:30.197Z,50.83
2022-11-28T15:40:59.003Z,42.30
2022-11-28T15:43:26.353Z,36.13
2022-11-28T15:46:02.599Z,40.78
2022-11-28T15:48:39.247Z,39.85
2022-11-28T15:51:07.248Z,37.25
2022-11-28T15:53:39.853Z,34.10
2022-11-28T15:56:11.363Z,33.80
2022-11-28T15:58:39.411Z,33.20
2022-11-28T16:01:23.011Z,36.28
2022-11-28T16:03:58.190Z,47.50
2022-11-28T16:06:28.528Z,50.10
2022-11-28T16:08:58.602Z,50.45
2022-11-28T16:11:28.373Z,42.05
2022-11-28T16:13:58.203Z,37.92
2022-11-28T16:16:28.400Z,34.92
2022-11-28T16:19:00.355Z,45.10
2022-11-28T16:21:34.150Z,54.90
2022-11-28T16:24:01.931Z,47.17
2022-11-28T16:26:37.158Z,53.65
2022-11-28T16:29:12.810Z,56.65
2022-11-28T16:31:39.783Z,67.68
2022-11-28T16:34:12.977Z,71.65
2022-11-28T16:36:41.132Z,67.45
2022-11-28T16:39:15.888Z,63.15
2022-11-28T16:41:54.800Z,72.43
2022-11-28T16:44:24.625Z,66.28
2022-11-28T16:46:56.803Z,63.50
2022-11-28T16:49:38.249Z,74.78
2022-11-28T16:52:24.030Z,83.15
2022-11-28T16:54:53.576Z,74.93
2022-11-28T16:57:21.176Z,83.72
2022-11-28T16:59:54.774Z,79.97
2022-11-28T17:02:26.796Z,77.82
2022-11-28T17:04:53.959Z,78.22
2022-11-28T17:07:22.816Z,91.55
2022-11-28T17:09:50.077Z,89.45
2022-11-28T17:12:33.875Z,87.32
2022-11-28T17:15:00.766Z,90.20
2022-11-28T17:17:29.912Z,86.85
2022-11-28T17:19:56.840Z,86.03
2022-11-28T17:22:27.406Z,104.75
2022-11-28T17:25:00.873Z,111.68
2022-11-28T17:27:28.360Z,111.85
2022-11-28T17:29:57.346Z,111.63
2022-11-28T17:32:24.564Z,107.50
2022-11-28T17:34:51.506Z,113.72
2022-11-28T17:37:18.223Z,163.15
2022-11-28T17:40:04.981Z,126.93
2022-11-28T17:42:34.107Z,123.60
2022-11-28T17:45:01.068Z,133.65
2022-11-28T17:47:27.772Z,127.57
2022-11-28T17:49:54.634Z,127.43
2022-11-28T17:52:21.408Z,123.93
2022-11-28T17:54:48.356Z,113.13
2022-11-28T17:57:17.512Z,109.15
2022-11-28T17:59:44.517Z,112.97
2022-11-28T18:02:11.644Z,108.15
2022-11-28T18:04:41.118Z,124.90
2022-11-28T18:07:07.854Z,114.60
2022-11-28T18:09:37.011Z,119.72
2022-11-28T18:12:04.069Z,127.05
2022-11-28T18:14:35.195Z,122.07
2022-11-28T18:17:04.906Z,107.07
2022-11-28T18:19:31.628Z,117.82
2022-11-28T18:22:00.852Z,107.05
2022-11-28T18:24:27.567Z,102.53
2022-11-28T18:26:54.275Z,109.82
2022-11-28T18:29:20.997Z,97.35
2022-11-28T18:31:47.759Z,95.30
2022-11-28T18:34:16.703Z,116.38
2022-11-28T18:36:43.687Z,104.75
2022-11-28T18:39:13.591Z,108.50
2022-11-28T18:41:42.937Z,92.75
2022-11-28T18:44:11.183Z,90.63
2022-11-28T18:46:42.191Z,90.80
2022-11-28T18:49:12.280Z,96.45
2022-11-28T18:51:38.999Z,93.18
2022-11-28T18:54:14.036Z,82.22
2022-11-28T18:56:47.416Z,86.18
2022-11-28T18:59:20.218Z,89.38
2022-11-28T19:01:52.206Z,80.25
2022-11-28T19:04:19.113Z,75.05
2022-11-28T19:06:50.713Z,87.40
2022-11-28T19:09:23.240Z,76.22
2022-11-28T19:11:55.175Z,70.32
2022-11-28T19:14:25.068Z,81.10
2022-11-28T19:16:57.069Z,73.85
2022-11-28T19:19:26.097Z,64.43
2022-11-28T19:21:52.796Z,64.22
2022-11-28T19:24:25.108Z,75.00
2022-11-28T19:26:54.240Z,81.90
2022-11-28T19:29:20.981Z,64.68
2022-11-28T19:31:47.772Z,67.38
2022-11-28T19:34:18.557Z,67.38
2022-11-28T19:36:49.148Z,69.30
2022-11-28T19:39:23.628Z,70.70
2022-11-28T19:41:52.325Z,63.50
2022-11-28T19:44:21.034Z,61.65
2022-11-28T19:46:48.230Z,62.75
2022-11-28T19:49:21.916Z,61.15
2022-11-28T19:51:49.664Z,59.20
2022-11-28T19:54:22.411Z,66.30
2022-11-28T19:56:52.942Z,57.50
2022-11-28T19:59:21.820Z,58.58
2022-11-28T20:01:53.797Z,51.47
2022-11-28T20:04:22.859Z,47.72
2022-11-28T20:06:49.593Z,48.40
2022-11-28T20:09:16.574Z,49.85
2022-11-28T20:11:43.955Z,49.17
2022-11-28T20:14:15.587Z,41.83
2022-11-28T20:16:43.469Z,44.67
2022-11-28T20:19:11.576Z,46.75
2022-11-28T20:21:38.434Z,47.53
2022-11-28T20:24:08.409Z,52.67
2022-11-28T20:26:39.086Z,56.55
2022-11-28T20:29:06.875Z,43.63
2022-11-28T20:31:37.784Z,42.33
2022-11-28T20:34:07.831Z,43.05
2022-11-28T20:36:37.430Z,54.15
2022-11-28T20:39:05.151Z,47.78
2022-11-28T20:41:38.906Z,48.95
2022-11-28T20:44:05.916Z,63.72
2022-11-28T20:46:35.502Z,39.75
2022-11-28T20:49:05.409Z,34.72
2022-11-28T20:51:33.847Z,35.80
2022-11-28T20:54:01.746Z,42.22
2022-11-28T20:56:30.660Z,34.70
2022-11-28T20:59:01.854Z,54.88
2022-11-28T21:01:36.898Z,41.65
2022-11-28T21:04:06.784Z,36.80
2022-11-28T21:06:36.242Z,44.78
2022-11-28T21:09:11.355Z,41.50
2022-11-28T21:11:57.903Z,47.45
2022-11-28T21:14:26.805Z,44.25
2022-11-28T21:16:53.715Z,44.03
2022-11-28T21:19:25.707Z,57.67
2022-11-28T21:21:54.641Z,52.28
2022-11-28T21:24:21.723Z,56.08
2022-11-28T21:26:54.385Z,59.25
2022-11-28T21:29:22.131Z,50.38
2022-11-28T21:31:49.021Z,42.63
2022-11-28T21:34:16.768Z,34.67
2022-11-28T21:36:44.088Z,30.35
2022-11-28T21:39:14.608Z,16.88
2022-11-28T21:41:41.681Z,21.23
2022-11-28T21:44:08.739Z,21.40
2022-11-28T21:46:37.763Z,13.07
2022-11-28T21:49:06.996Z,11.00
2022-11-28T21:51:33.677Z,13.85
2022-11-28T21:54:02.928Z,11.77
2022-11-28T21:56:32.312Z,13.30
2022-11-28T21:58:59.111Z,11.00
2022-11-28T22:01:25.974Z,12.57
2022-11-28T22:03:53.583Z,14.40
2022-11-28T22:06:24.487Z,15.73
2022-11-28T22:08:52.581Z,15.05
2022-11-28T22:11:21.351Z,12.55
2022-11-28T22:13:49.054Z,12.23
2022-11-28T22:16:27.959Z,17.40
2022-11-28T22:18:57.856Z,18.48
2022-11-28T22:24:13.749Z,16.63
2022-11-28T22:26:40.583Z,11.77
2022-11-28T22:29:07.323Z,17.50
2022-11-28T22:31:36.719Z,13.65
2022-11-28T22:34:03.556Z,14.77
2022-11-28T22:36:32.058Z,16.60
2022-11-28T22:39:02.786Z,19.98
2022-11-28T22:41:29.980Z,14.27
2022-11-28T22:43:59.628Z,16.70
2022-11-28T22:46:26.842Z,13.23
2022-11-28T22:48:53.565Z,16.73
2022-11-28T22:51:23.094Z,12.85
2022-11-28T22:53:54.652Z,16.20
2022-11-28T22:56:21.739Z,19.27
2022-11-28T22:58:49.046Z,17.85
2022-11-28T23:01:21.740Z,17.60
2022-11-28T23:03:51.611Z,22.10
2022-11-28T23:06:21.325Z,19.65
2022-11-28T23:08:48.469Z,25.00
2022-11-28T23:11:18.285Z,34.67
2022-11-28T23:13:47.865Z,37.92
2022-11-28T23:16:31.572Z,30.95
2022-11-28T23:19:01.915Z,33.05
2022-11-28T23:21:31.657Z,42.92
2022-11-28T23:23:58.491Z,45.92
2022-11-28T23:26:27.176Z,29.27
2022-11-28T23:28:54.740Z,35.95
2022-11-28T23:31:24.271Z,46.30
2022-11-28T23:33:52.204Z,40.95
2022-11-28T23:36:23.637Z,49.92
2022-11-28T23:38:53.551Z,41.22
2022-11-28T23:41:20.601Z,39.10
2022-11-28T23:43:50.310Z,36.67
2022-11-28T23:46:20.639Z,34.75
2022-11-28T23:48:50.027Z,28.85
2022-11-28T23:51:20.692Z,42.50
2022-11-28T23:53:47.958Z,42.20
2022-11-28T23:56:23.105Z,35.22
2022-11-28T23:58:51.017Z,34.58
